sensor_id;sensor_type;location;lat;lon;timestamp;P1;durP1;ratioP1;P2;durP2;ratioP2
19905;SDS011;10115;50.906;4.438;2023-02-22T00:00:58;19.30;;;12.77;;
19905;SDS011;10115;50.906;4.438;2023-02-22T00:03:31;25.97;;;13.13;;
19905;SDS011;10115;50.906;4.438;2023-02-22T00:05:57;17.37;;;11.50;;
19905;SDS011;10115;50.906;4.438;2023-02-22T00:08:27;17.70;;;11.90;;
19905;SDS011;10115;50.906;4.438;2023-02-22T00:10:58;19.57;;;12.60;;
19905;SDS011;10115;50.906;4.438;2023-02-22T00:13:24;18.23;;;11.90;;
19905;SDS011;10115;50.906;4.438;2023-02-22T00:15:53;16.73;;;12.73;;
19905;SDS011;10115;50.906;4.438;2023-02-22T00:18:19;22.40;;;12.63;;
19905;SDS011;10115;50.906;4.438;2023-02-22T00:20:45;20.03;;;12.20;;
19905;SDS011;10115;50.906;4.438;2023-02-22T00:23:15;20.67;;;13.57;;
19905;SDS011;10115;50.906;4.438;2023-02-22T00:25:43;18.80;;;13.80;;
19905;SDS011;10115;50.906;4.438;2023-02-22T00:28:09;19.17;;;13.87;;
19905;SDS011;10115;50.906;4.438;2023-02-22T00:30:37;28.23;;;11.87;;
19905;SDS011;10115;50.906;4.438;2023-02-22T00:33:03;18.30;;;9.73;;
19905;SDS011;10115;50.906;4.438;2023-02-22T00:35:30;25.63;;;13.40;;
19905;SDS011;10115;50.906;4.438;2023-02-22T00:37:57;17.20;;;11.73;;
19905;SDS011;10115;50.906;4.438;2023-02-22T00:40:25;19.10;;;12.93;;
19905;SDS011;10115;50.906;4.438;2023-02-22T00:42:54;16.50;;;11.80;;
19905;SDS011;10115;50.906;4.438;2023-02-22T00:45:22;31.70;;;13.07;;
19905;SDS011;10115;50.906;4.438;2023-02-22T00:47:49;19.30;;;12.27;;
19905;SDS011;10115;50.906;4.438;2023-02-22T00:50:15;15.30;;;11.53;;
19905;SDS011;10115;50.906;4.438;2023-02-22T00:52:42;18.23;;;12.87;;
19905;SDS011;10115;50.906;4.438;2023-02-22T00:55:10;28.57;;;12.30;;
19905;SDS011;10115;50.906;4.438;2023-02-22T00:57:40;23.93;;;12.13;;
19905;SDS011;10115;50.906;4.438;2023-02-22T01:00:07;19.80;;;12.23;;
19905;SDS011;10115;50.906;4.438;2023-02-22T01:02:37;18.80;;;14.40;;
19905;SDS011;10115;50.906;4.438;2023-02-22T01:05:05;17.27;;;11.13;;
19905;SDS011;10115;50.906;4.438;2023-02-22T01:07:32;17.77;;;11.87;;
19905;SDS011;10115;50.906;4.438;2023-02-22T01:09:59;17.73;;;11.60;;
19905;SDS011;10115;50.906;4.438;2023-02-22T01:12:28;14.80;;;10.93;;
19905;SDS011;10115;50.906;4.438;2023-02-22T01:14:54;19.53;;;11.80;;
19905;SDS011;10115;50.906;4.438;2023-02-22T01:17:23;18.00;;;12.73;;
19905;SDS011;10115;50.906;4.438;2023-02-22T01:19:49;21.73;;;14.37;;
19905;SDS011;10115;50.906;4.438;2023-02-22T01:22:16;16.50;;;11.70;;
19905;SDS011;10115;50.906;4.438;2023-02-22T01:24:42;15.63;;;10.30;;
19905;SDS011;10115;50.906;4.438;2023-02-22T01:27:08;20.77;;;11.40;;
19905;SDS011;10115;50.906;4.438;2023-02-22T01:29:37;20.50;;;13.20;;
19905;SDS011;10115;50.906;4.438;2023-02-22T01:32:03;17.13;;;11.80;;
19905;SDS011;10115;50.906;4.438;2023-02-22T01:34:30;21.33;;;12.67;;
19905;SDS011;10115;50.906;4.438;2023-02-22T01:36:58;15.37;;;10.70;;
19905;SDS011;10115;50.906;4.438;2023-02-22T01:39:25;16.57;;;10.57;;
19905;SDS011;10115;50.906;4.438;2023-02-22T01:41:52;17.13;;;12.23;;
19905;SDS011;10115;50.906;4.438;2023-02-22T01:44:19;12.40;;;10.07;;
19905;SDS011;10115;50.906;4.438;2023-02-22T01:46:57;16.07;;;10.90;;
19905;SDS011;10115;50.906;4.438;2023-02-22T01:52:05;13.50;;;11.17;;
19905;SDS011;10115;50.906;4.438;2023-02-22T01:54:36;12.93;;;9.30;;
19905;SDS011;10115;50.906;4.438;2023-02-22T01:57:26;16.63;;;11.67;;
19905;SDS011;10115;50.906;4.438;2023-02-22T02:00:04;14.47;;;11.03;;
19905;SDS011;10115;50.906;4.438;2023-02-22T02:02:34;14.70;;;11.50;;
19905;SDS011;10115;50.906;4.438;2023-02-22T02:05:05;15.23;;;11.80;;
19905;SDS011;10115;50.906;4.438;2023-02-22T02:07:32;19.90;;;12.33;;
19905;SDS011;10115;50.906;4.438;2023-02-22T02:10:01;15.10;;;10.30;;
19905;SDS011;10115;50.906;4.438;2023-02-22T02:12:32;18.17;;;11.43;;
19905;SDS011;10115;50.906;4.438;2023-02-22T02:17:53;18.00;;;11.73;;
19905;SDS011;10115;50.906;4.438;2023-02-22T02:31:29;17.80;;;11.07;;
19905;SDS011;10115;50.906;4.438;2023-02-22T02:39:53;9.60;;;8.67;;
19905;SDS011;10115;50.906;4.438;2023-02-22T02:42:43;10.73;;;9.77;;
19905;SDS011;10115;50.906;4.438;2023-02-22T02:45:15;13.67;;;9.73;;
19905;SDS011;10115;50.906;4.438;2023-02-22T02:47:46;17.37;;;11.10;;
19905;SDS011;10115;50.906;4.438;2023-02-22T02:50:19;11.07;;;9.83;;
19905;SDS011;10115;50.906;4.438;2023-02-22T02:52:49;15.40;;;11.20;;
19905;SDS011;10115;50.906;4.438;2023-02-22T02:55:18;14.87;;;10.87;;
19905;SDS011;10115;50.906;4.438;2023-02-22T02:57:44;12.87;;;9.83;;
19905;SDS011;10115;50.906;4.438;2023-02-22T03:00:10;10.60;;;9.50;;
19905;SDS011;10115;50.906;4.438;2023-02-22T03:08:33;19.47;;;10.70;;
19905;SDS011;10115;50.906;4.438;2023-02-22T03:11:10;15.03;;;11.47;;
19905;SDS011;10115;50.906;4.438;2023-02-22T03:16:31;17.30;;;10.60;;
19905;SDS011;10115;50.906;4.438;2023-02-22T03:19:06;13.93;;;9.60;;
19905;SDS011;10115;50.906;4.438;2023-02-22T03:24:08;13.33;;;11.23;;
19905;SDS011;10115;50.906;4.438;2023-02-22T03:26:55;13.10;;;10.67;;
19905;SDS011;10115;50.906;4.438;2023-02-22T03:29:37;16.13;;;10.07;;
19905;SDS011;10115;50.906;4.438;2023-02-22T03:32:10;18.33;;;10.20;;
19905;SDS011;10115;50.906;4.438;2023-02-22T03:34:41;11.93;;;9.83;;
19905;SDS011;10115;50.906;4.438;2023-02-22T03:37:22;11.63;;;10.40;;
19905;SDS011;10115;50.906;4.438;2023-02-22T03:39:53;15.80;;;10.97;;
19905;SDS011;10115;50.906;4.438;2023-02-22T03:42:21;12.67;;;10.47;;
19905;SDS011;10115;50.906;4.438;2023-02-22T03:44:51;16.17;;;12.63;;
19905;SDS011;10115;50.906;4.438;2023-02-22T03:47:22;12.50;;;10.77;;
19905;SDS011;10115;50.906;4.438;2023-02-22T03:50:06;12.30;;;11.00;;
19905;SDS011;10115;50.906;4.438;2023-02-22T03:52:36;13.50;;;11.90;;
19905;SDS011;10115;50.906;4.438;2023-02-22T03:55:02;12.57;;;9.43;;
19905;SDS011;10115;50.906;4.438;2023-02-22T03:57:35;14.03;;;10.23;;
19905;SDS011;10115;50.906;4.438;2023-02-22T04:00:05;12.00;;;9.77;;
19905;SDS011;10115;50.906;4.438;2023-02-22T04:02:32;12.87;;;11.03;;
19905;SDS011;10115;50.906;4.438;2023-02-22T04:04:58;13.50;;;10.67;;
19905;SDS011;10115;50.906;4.438;2023-02-22T04:07:24;16.17;;;11.60;;
19905;SDS011;10115;50.906;4.438;2023-02-22T04:09:50;11.97;;;10.40;;
19905;SDS011;10115;50.906;4.438;2023-02-22T04:12:15;11.13;;;9.83;;
19905;SDS011;10115;50.906;4.438;2023-02-22T04:14:41;12.43;;;10.37;;
19905;SDS011;10115;50.906;4.438;2023-02-22T04:17:07;12.97;;;11.47;;
19905;SDS011;10115;50.906;4.438;2023-02-22T04:19:33;14.33;;;11.70;;
19905;SDS011;10115;50.906;4.438;2023-02-22T04:21:59;12.37;;;10.97;;
19905;SDS011;10115;50.906;4.438;2023-02-22T04:24:24;23.90;;;10.57;;
19905;SDS011;10115;50.906;4.438;2023-02-22T04:26:50;13.10;;;9.43;;
19905;SDS011;10115;50.906;4.438;2023-02-22T04:29:16;12.10;;;10.87;;
19905;SDS011;10115;50.906;4.438;2023-02-22T04:31:41;11.87;;;10.77;;
19905;SDS011;10115;50.906;4.438;2023-02-22T04:34:07;11.43;;;9.27;;
19905;SDS011;10115;50.906;4.438;2023-02-22T04:36:33;15.13;;;10.20;;
19905;SDS011;10115;50.906;4.438;2023-02-22T04:38:59;11.80;;;10.63;;
19905;SDS011;10115;50.906;4.438;2023-02-22T04:41:24;12.40;;;9.73;;
19905;SDS011;10115;50.906;4.438;2023-02-22T04:43:50;10.83;;;9.83;;
19905;SDS011;10115;50.906;4.438;2023-02-22T04:46:16;11.07;;;9.97;;
19905;SDS011;10115;50.906;4.438;2023-02-22T04:48:42;13.83;;;10.47;;
19905;SDS011;10115;50.906;4.438;2023-02-22T04:51:07;10.50;;;9.43;;
19905;SDS011;10115;50.906;4.438;2023-02-22T04:53:35;11.73;;;10.30;;
19905;SDS011;10115;50.906;4.438;2023-02-22T04:56:01;12.30;;;10.50;;
19905;SDS011;10115;50.906;4.438;2023-02-22T04:58:26;11.30;;;10.17;;
19905;SDS011;10115;50.906;4.438;2023-02-22T05:00:52;11.27;;;9.77;;
19905;SDS011;10115;50.906;4.438;2023-02-22T05:03:18;10.47;;;9.47;;
19905;SDS011;10115;50.906;4.438;2023-02-22T05:05:45;11.03;;;9.93;;
19905;SDS011;10115;50.906;4.438;2023-02-22T05:08:10;10.63;;;9.60;;
19905;SDS011;10115;50.906;4.438;2023-02-22T05:10:36;10.37;;;9.37;;
19905;SDS011;10115;50.906;4.438;2023-02-22T05:13:02;11.10;;;9.27;;
19905;SDS011;10115;50.906;4.438;2023-02-22T05:15:27;11.23;;;9.63;;
19905;SDS011;10115;50.906;4.438;2023-02-22T05:17:53;11.50;;;10.33;;
19905;SDS011;10115;50.906;4.438;2023-02-22T05:20:26;13.10;;;10.23;;
19905;SDS011;10115;50.906;4.438;2023-02-22T05:22:55;11.13;;;9.97;;
19905;SDS011;10115;50.906;4.438;2023-02-22T05:25:21;10.40;;;9.30;;
19905;SDS011;10115;50.906;4.438;2023-02-22T05:27:55;10.83;;;9.80;;
19905;SDS011;10115;50.906;4.438;2023-02-22T05:30:24;9.27;;;8.30;;
19905;SDS011;10115;50.906;4.438;2023-02-22T05:32:53;10.27;;;9.17;;
19905;SDS011;10115;50.906;4.438;2023-02-22T05:35:19;11.10;;;10.03;;
19905;SDS011;10115;50.906;4.438;2023-02-22T05:37:46;9.60;;;8.67;;
19905;SDS011;10115;50.906;4.438;2023-02-22T05:40:11;10.40;;;9.33;;
19905;SDS011;10115;50.906;4.438;2023-02-22T05:42:38;11.47;;;10.30;;
19905;SDS011;10115;50.906;4.438;2023-02-22T05:45:05;9.07;;;8.37;;
19905;SDS011;10115;50.906;4.438;2023-02-22T05:47:31;10.53;;;9.40;;
19905;SDS011;10115;50.906;4.438;2023-02-22T05:49:57;10.90;;;9.33;;
19905;SDS011;10115;50.906;4.438;2023-02-22T05:52:23;10.77;;;8.70;;
19905;SDS011;10115;50.906;4.438;2023-02-22T05:54:49;9.57;;;8.67;;
19905;SDS011;10115;50.906;4.438;2023-02-22T05:57:15;12.10;;;9.43;;
19905;SDS011;10115;50.906;4.438;2023-02-22T05:59:40;9.10;;;8.30;;
19905;SDS011;10115;50.906;4.438;2023-02-22T06:02:07;9.30;;;8.37;;
19905;SDS011;10115;50.906;4.438;2023-02-22T06:04:33;9.70;;;8.80;;
19905;SDS011;10115;50.906;4.438;2023-02-22T06:06:58;12.83;;;10.23;;
19905;SDS011;10115;50.906;4.438;2023-02-22T06:09:24;10.07;;;9.07;;
19905;SDS011;10115;50.906;4.438;2023-02-22T06:11:50;9.67;;;8.63;;
19905;SDS011;10115;50.906;4.438;2023-02-22T06:14:17;11.37;;;8.47;;
19905;SDS011;10115;50.906;4.438;2023-02-22T06:16:43;10.07;;;9.10;;
19905;SDS011;10115;50.906;4.438;2023-02-22T06:19:08;12.17;;;8.73;;
19905;SDS011;10115;50.906;4.438;2023-02-22T06:21:34;9.40;;;8.43;;
19905;SDS011;10115;50.906;4.438;2023-02-22T06:24:03;9.87;;;8.90;;
19905;SDS011;10115;50.906;4.438;2023-02-22T06:26:29;8.93;;;7.90;;
19905;SDS011;10115;50.906;4.438;2023-02-22T06:28:54;10.13;;;9.23;;
19905;SDS011;10115;50.906;4.438;2023-02-22T06:31:20;9.37;;;8.53;;
19905;SDS011;10115;50.906;4.438;2023-02-22T06:33:45;10.20;;;9.20;;
19905;SDS011;10115;50.906;4.438;2023-02-22T06:36:11;10.57;;;9.67;;
19905;SDS011;10115;50.906;4.438;2023-02-22T06:38:37;9.60;;;8.70;;
19905;SDS011;10115;50.906;4.438;2023-02-22T06:41:03;11.63;;;9.50;;
19905;SDS011;10115;50.906;4.438;2023-02-22T06:43:29;12.30;;;9.50;;
19905;SDS011;10115;50.906;4.438;2023-02-22T06:45:54;9.97;;;8.80;;
19905;SDS011;10115;50.906;4.438;2023-02-22T06:48:20;11.23;;;9.10;;
19905;SDS011;10115;50.906;4.438;2023-02-22T06:50:45;9.10;;;8.20;;
19905;SDS011;10115;50.906;4.438;2023-02-22T06:53:11;10.03;;;9.10;;
19905;SDS011;10115;50.906;4.438;2023-02-22T06:55:37;12.83;;;7.57;;
19905;SDS011;10115;50.906;4.438;2023-02-22T06:58:03;8.33;;;7.63;;
19905;SDS011;10115;50.906;4.438;2023-02-22T07:00:29;12.63;;;8.30;;
19905;SDS011;10115;50.906;4.438;2023-02-22T07:02:56;9.77;;;8.77;;
19905;SDS011;10115;50.906;4.438;2023-02-22T07:05:23;7.93;;;7.23;;
19905;SDS011;10115;50.906;4.438;2023-02-22T07:07:50;9.83;;;8.17;;
19905;SDS011;10115;50.906;4.438;2023-02-22T07:12:51;8.90;;;8.03;;
19905;SDS011;10115;50.906;4.438;2023-02-22T07:15:18;9.77;;;8.90;;
19905;SDS011;10115;50.906;4.438;2023-02-22T07:17:45;9.10;;;8.23;;
19905;SDS011;10115;50.906;4.438;2023-02-22T07:20:11;12.73;;;9.00;;
19905;SDS011;10115;50.906;4.438;2023-02-22T07:22:37;9.33;;;8.37;;
19905;SDS011;10115;50.906;4.438;2023-02-22T07:25:07;11.17;;;9.03;;
19905;SDS011;10115;50.906;4.438;2023-02-22T07:27:39;11.03;;;9.80;;
19905;SDS011;10115;50.906;4.438;2023-02-22T07:33:07;9.53;;;8.73;;
19905;SDS011;10115;50.906;4.438;2023-02-22T07:35:42;9.60;;;8.83;;
19905;SDS011;10115;50.906;4.438;2023-02-22T07:38:10;9.80;;;8.87;;
19905;SDS011;10115;50.906;4.438;2023-02-22T07:40:37;11.60;;;10.07;;
19905;SDS011;10115;50.906;4.438;2023-02-22T07:43:04;9.63;;;8.90;;
19905;SDS011;10115;50.906;4.438;2023-02-22T07:45:33;9.67;;;8.67;;
19905;SDS011;10115;50.906;4.438;2023-02-22T07:48:00;9.90;;;8.90;;
19905;SDS011;10115;50.906;4.438;2023-02-22T07:50:27;8.70;;;7.90;;
19905;SDS011;10115;50.906;4.438;2023-02-22T07:52:55;16.73;;;9.30;;
19905;SDS011;10115;50.906;4.438;2023-02-22T07:55:23;8.60;;;7.83;;
19905;SDS011;10115;50.906;4.438;2023-02-22T07:57:52;10.03;;;8.93;;
19905;SDS011;10115;50.906;4.438;2023-02-22T08:00:37;10.87;;;8.63;;
19905;SDS011;10115;50.906;4.438;2023-02-22T08:03:05;13.00;;;9.70;;
19905;SDS011;10115;50.906;4.438;2023-02-22T08:05:33;11.27;;;9.30;;
19905;SDS011;10115;50.906;4.438;2023-02-22T08:08:00;13.23;;;8.60;;
19905;SDS011;10115;50.906;4.438;2023-02-22T08:10:26;9.50;;;8.70;;
19905;SDS011;10115;50.906;4.438;2023-02-22T08:12:52;10.20;;;8.93;;
19905;SDS011;10115;50.906;4.438;2023-02-22T08:15:25;11.73;;;9.10;;
19905;SDS011;10115;50.906;4.438;2023-02-22T08:17:59;10.00;;;8.60;;
19905;SDS011;10115;50.906;4.438;2023-02-22T08:20:25;12.40;;;8.77;;
19905;SDS011;10115;50.906;4.438;2023-02-22T08:22:52;8.93;;;8.17;;
19905;SDS011;10115;50.906;4.438;2023-02-22T08:25:19;9.43;;;8.43;;
19905;SDS011;10115;50.906;4.438;2023-02-22T08:27:49;12.33;;;9.50;;
19905;SDS011;10115;50.906;4.438;2023-02-22T08:30:20;8.93;;;7.60;;
19905;SDS011;10115;50.906;4.438;2023-02-22T08:32:47;9.43;;;8.57;;
19905;SDS011;10115;50.906;4.438;2023-02-22T08:35:14;14.77;;;9.43;;
19905;SDS011;10115;50.906;4.438;2023-02-22T08:37:44;9.27;;;7.67;;
19905;SDS011;10115;50.906;4.438;2023-02-22T08:40:12;10.87;;;9.70;;
19905;SDS011;10115;50.906;4.438;2023-02-22T08:42:38;9.60;;;8.03;;
19905;SDS011;10115;50.906;4.438;2023-02-22T08:45:04;9.57;;;7.57;;
19905;SDS011;10115;50.906;4.438;2023-02-22T08:47:30;12.90;;;9.40;;
19905;SDS011;10115;50.906;4.438;2023-02-22T08:49:55;9.33;;;8.37;;
19905;SDS011;10115;50.906;4.438;2023-02-22T08:52:21;8.93;;;8.17;;
19905;SDS011;10115;50.906;4.438;2023-02-22T08:54:47;13.30;;;9.53;;
19905;SDS011;10115;50.906;4.438;2023-02-22T08:57:13;13.10;;;7.90;;
19905;SDS011;10115;50.906;4.438;2023-02-22T08:59:38;9.50;;;8.60;;
19905;SDS011;10115;50.906;4.438;2023-02-22T09:02:04;13.13;;;9.00;;
19905;SDS011;10115;50.906;4.438;2023-02-22T09:04:37;10.47;;;8.00;;
19905;SDS011;10115;50.906;4.438;2023-02-22T09:07:03;13.83;;;8.00;;
19905;SDS011;10115;50.906;4.438;2023-02-22T09:09:29;9.57;;;8.50;;
19905;SDS011;10115;50.906;4.438;2023-02-22T09:11:54;14.37;;;8.03;;
19905;SDS011;10115;50.906;4.438;2023-02-22T09:14:20;13.97;;;8.77;;
19905;SDS011;10115;50.906;4.438;2023-02-22T09:16:46;9.60;;;8.20;;
19905;SDS011;10115;50.906;4.438;2023-02-22T09:19:12;9.57;;;8.30;;
19905;SDS011;10115;50.906;4.438;2023-02-22T09:21:37;10.93;;;8.53;;
19905;SDS011;10115;50.906;4.438;2023-02-22T09:24:04;10.03;;;8.00;;
19905;SDS011;10115;50.906;4.438;2023-02-22T09:26:32;10.60;;;8.27;;
19905;SDS011;10115;50.906;4.438;2023-02-22T09:29:04;18.47;;;10.10;;
19905;SDS011;10115;50.906;4.438;2023-02-22T09:31:37;13.07;;;10.33;;
19905;SDS011;10115;50.906;4.438;2023-02-22T09:34:04;10.30;;;8.83;;
19905;SDS011;10115;50.906;4.438;2023-02-22T09:36:38;20.90;;;10.33;;
19905;SDS011;10115;50.906;4.438;2023-02-22T09:39:05;13.43;;;10.07;;
19905;SDS011;10115;50.906;4.438;2023-02-22T09:41:34;21.87;;;11.07;;
19905;SDS011;10115;50.906;4.438;2023-02-22T09:44:10;18.27;;;10.73;;
19905;SDS011;10115;50.906;4.438;2023-02-22T09:46:46;13.70;;;9.77;;
19905;SDS011;10115;50.906;4.438;2023-02-22T09:52:05;13.17;;;9.60;;
19905;SDS011;10115;50.906;4.438;2023-02-22T09:54:43;10.60;;;8.83;;
19905;SDS011;10115;50.906;4.438;2023-02-22T09:57:36;16.47;;;10.03;;
19905;SDS011;10115;50.906;4.438;2023-02-22T10:00:06;21.83;;;10.07;;
19905;SDS011;10115;50.906;4.438;2023-02-22T10:05:23;14.07;;;9.70;;
19905;SDS011;10115;50.906;4.438;2023-02-22T10:08:00;11.27;;;9.63;;
19905;SDS011;10115;50.906;4.438;2023-02-22T10:10:34;14.57;;;10.10;;
19905;SDS011;10115;50.906;4.438;2023-02-22T10:19:08;10.87;;;9.33;;
19905;SDS011;10115;50.906;4.438;2023-02-22T10:21:48;24.43;;;10.63;;
19905;SDS011;10115;50.906;4.438;2023-02-22T10:24:24;16.23;;;9.60;;
19905;SDS011;10115;50.906;4.438;2023-02-22T10:27:07;12.57;;;10.10;;
19905;SDS011;10115;50.906;4.438;2023-02-22T10:29:43;12.67;;;9.67;;
19905;SDS011;10115;50.906;4.438;2023-02-22T10:32:20;14.13;;;10.10;;
19905;SDS011;10115;50.906;4.438;2023-02-22T10:34:54;13.90;;;10.40;;
19905;SDS011;10115;50.906;4.438;2023-02-22T10:37:25;18.57;;;10.73;;
19905;SDS011;10115;50.906;4.438;2023-02-22T10:40:09;13.30;;;9.03;;
19905;SDS011;10115;50.906;4.438;2023-02-22T10:43:05;16.00;;;10.70;;
19905;SDS011;10115;50.906;4.438;2023-02-22T10:45:33;16.70;;;11.27;;
19905;SDS011;10115;50.906;4.438;2023-02-22T10:48:03;13.73;;;10.13;;
19905;SDS011;10115;50.906;4.438;2023-02-22T10:50:43;9.23;;;8.33;;
19905;SDS011;10115;50.906;4.438;2023-02-22T10:53:11;17.70;;;12.40;;
19905;SDS011;10115;50.906;4.438;2023-02-22T10:58:42;13.87;;;10.57;;
19905;SDS011;10115;50.906;4.438;2023-02-22T11:01:20;15.87;;;11.40;;
19905;SDS011;10115;50.906;4.438;2023-02-22T11:04:15;17.17;;;10.80;;
19905;SDS011;10115;50.906;4.438;2023-02-22T11:06:44;11.47;;;9.07;;
19905;SDS011;10115;50.906;4.438;2023-02-22T11:11:45;13.73;;;10.97;;
19905;SDS011;10115;50.906;4.438;2023-02-22T11:14:13;9.20;;;8.40;;
19905;SDS011;10115;50.906;4.438;2023-02-22T11:16:51;15.20;;;10.53;;
19905;SDS011;10115;50.906;4.438;2023-02-22T11:21:56;16.80;;;11.60;;
19905;SDS011;10115;50.906;4.438;2023-02-22T11:24:25;10.80;;;9.70;;
19905;SDS011;10115;50.906;4.438;2023-02-22T11:26:59;15.17;;;10.40;;
19905;SDS011;10115;50.906;4.438;2023-02-22T11:29:34;16.73;;;9.83;;
19905;SDS011;10115;50.906;4.438;2023-02-22T11:32:14;18.97;;;10.17;;
19905;SDS011;10115;50.906;4.438;2023-02-22T11:34:47;16.27;;;11.33;;
19905;SDS011;10115;50.906;4.438;2023-02-22T11:42:45;16.80;;;11.90;;
19905;SDS011;10115;50.906;4.438;2023-02-22T11:48:04;9.83;;;8.83;;
19905;SDS011;10115;50.906;4.438;2023-02-22T11:53:20;17.13;;;11.57;;
19905;SDS011;10115;50.906;4.438;2023-02-22T12:10:56;14.83;;;10.73;;
19905;SDS011;10115;50.906;4.438;2023-02-22T12:13:41;24.17;;;13.43;;
19905;SDS011;10115;50.906;4.438;2023-02-22T12:21:32;18.33;;;10.93;;
19905;SDS011;10115;50.906;4.438;2023-02-22T12:24:04;11.53;;;10.40;;
19905;SDS011;10115;50.906;4.438;2023-02-22T12:26:39;21.60;;;15.00;;
19905;SDS011;10115;50.906;4.438;2023-02-22T12:29:30;26.43;;;15.37;;
19905;SDS011;10115;50.906;4.438;2023-02-22T12:32:14;26.30;;;12.30;;
19905;SDS011;10115;50.906;4.438;2023-02-22T12:34:57;23.30;;;14.33;;
19905;SDS011;10115;50.906;4.438;2023-02-22T12:40:13;24.97;;;15.73;;
19905;SDS011;10115;50.906;4.438;2023-02-22T12:42:51;21.50;;;13.77;;
19905;SDS011;10115;50.906;4.438;2023-02-22T12:50:38;25.27;;;16.47;;
19905;SDS011;10115;50.906;4.438;2023-02-22T12:55:51;25.43;;;18.53;;
19905;SDS011;10115;50.906;4.438;2023-02-22T13:01:10;28.20;;;16.40;;
19905;SDS011;10115;50.906;4.438;2023-02-22T13:03:43;17.70;;;13.63;;
19905;SDS011;10115;50.906;4.438;2023-02-22T13:09:27;22.77;;;15.33;;
19905;SDS011;10115;50.906;4.438;2023-02-22T13:12:03;22.47;;;11.67;;
19905;SDS011;10115;50.906;4.438;2023-02-22T13:17:32;27.53;;;16.97;;
19905;SDS011;10115;50.906;4.438;2023-02-22T13:20:16;17.37;;;14.17;;
19905;SDS011;10115;50.906;4.438;2023-02-22T13:30:41;14.47;;;11.43;;
19905;SDS011;10115;50.906;4.438;2023-02-22T13:38:24;27.80;;;16.30;;
19905;SDS011;10115;50.906;4.438;2023-02-22T13:49:13;28.80;;;14.70;;
19905;SDS011;10115;50.906;4.438;2023-02-22T13:51:47;17.17;;;11.23;;
19905;SDS011;10115;50.906;4.438;2023-02-22T13:57:01;19.90;;;15.17;;
19905;SDS011;10115;50.906;4.438;2023-02-22T13:59:29;15.53;;;13.20;;
19905;SDS011;10115;50.906;4.438;2023-02-22T14:01:57;14.93;;;12.00;;
19905;SDS011;10115;50.906;4.438;2023-02-22T14:06:51;24.90;;;15.80;;
19905;SDS011;10115;50.906;4.438;2023-02-22T14:20:35;22.97;;;14.77;;
19905;SDS011;10115;50.906;4.438;2023-02-22T14:23:35;22.07;;;14.70;;
19905;SDS011;10115;50.906;4.438;2023-02-22T14:31:26;8.00;;;7.40;;
19905;SDS011;10115;50.906;4.438;2023-02-22T14:33:55;21.60;;;16.40;;
19905;SDS011;10115;50.906;4.438;2023-02-22T14:36:37;13.77;;;11.13;;
19905;SDS011;10115;50.906;4.438;2023-02-22T14:39:30;25.77;;;16.70;;
19905;SDS011;10115;50.906;4.438;2023-02-22T14:42:15;21.90;;;16.83;;
19905;SDS011;10115;50.906;4.438;2023-02-22T14:56:13;23.47;;;14.63;;
19905;SDS011;10115;50.906;4.438;2023-02-22T15:01:30;14.60;;;11.13;;
19905;SDS011;10115;50.906;4.438;2023-02-22T15:04:20;14.77;;;11.07;;
19905;SDS011;10115;50.906;4.438;2023-02-22T15:06:51;12.90;;;11.60;;
19905;SDS011;10115;50.906;4.438;2023-02-22T15:09:23;9.10;;;8.30;;
19905;SDS011;10115;50.906;4.438;2023-02-22T15:11:51;12.17;;;9.97;;
19905;SDS011;10115;50.906;4.438;2023-02-22T15:14:18;14.73;;;11.13;;
19905;SDS011;10115;50.906;4.438;2023-02-22T15:16:47;17.47;;;11.90;;
19905;SDS011;10115;50.906;4.438;2023-02-22T15:19:16;31.17;;;16.77;;
19905;SDS011;10115;50.906;4.438;2023-02-22T15:21:49;31.10;;;17.50;;
19905;SDS011;10115;50.906;4.438;2023-02-22T15:24:28;34.87;;;21.03;;
19905;SDS011;10115;50.906;4.438;2023-02-22T15:27:03;12.23;;;9.13;;
19905;SDS011;10115;50.906;4.438;2023-02-22T15:29:42;11.90;;;10.60;;
19905;SDS011;10115;50.906;4.438;2023-02-22T15:35:18;16.13;;;11.00;;
19905;SDS011;10115;50.906;4.438;2023-02-22T15:37:56;26.33;;;17.13;;
19905;SDS011;10115;50.906;4.438;2023-02-22T15:40:27;8.93;;;7.90;;
19905;SDS011;10115;50.906;4.438;2023-02-22T15:43:00;20.73;;;11.87;;
19905;SDS011;10115;50.906;4.438;2023-02-22T15:45:27;13.37;;;11.67;;
19905;SDS011;10115;50.906;4.438;2023-02-22T15:47:56;23.40;;;13.87;;
19905;SDS011;10115;50.906;4.438;2023-02-22T15:50:26;24.70;;;15.80;;
19905;SDS011;10115;50.906;4.438;2023-02-22T15:55:27;22.27;;;14.40;;
19905;SDS011;10115;50.906;4.438;2023-02-22T16:00:42;29.23;;;18.00;;
19905;SDS011;10115;50.906;4.438;2023-02-22T16:03:15;9.67;;;8.80;;
19905;SDS011;10115;50.906;4.438;2023-02-22T16:05:50;27.53;;;17.53;;
19905;SDS011;10115;50.906;4.438;2023-02-22T16:10:58;30.73;;;17.53;;
19905;SDS011;10115;50.906;4.438;2023-02-22T16:13:33;20.87;;;13.47;;
19905;SDS011;10115;50.906;4.438;2023-02-22T16:16:04;13.33;;;10.67;;
19905;SDS011;10115;50.906;4.438;2023-02-22T16:18:34;16.83;;;11.30;;
19905;SDS011;10115;50.906;4.438;2023-02-22T16:21:09;11.53;;;9.50;;
19905;SDS011;10115;50.906;4.438;2023-02-22T16:23:47;24.00;;;14.93;;
19905;SDS011;10115;50.906;4.438;2023-02-22T16:26:29;27.83;;;15.83;;
19905;SDS011;10115;50.906;4.438;2023-02-22T16:29:00;23.70;;;13.63;;
19905;SDS011;10115;50.906;4.438;2023-02-22T16:31:35;26.53;;;15.77;;
19905;SDS011;10115;50.906;4.438;2023-02-22T16:34:02;24.17;;;15.93;;
19905;SDS011;10115;50.906;4.438;2023-02-22T16:36:50;37.90;;;16.20;;
19905;SDS011;10115;50.906;4.438;2023-02-22T16:42:02;30.13;;;15.03;;
19905;SDS011;10115;50.906;4.438;2023-02-22T16:44:29;27.93;;;18.33;;
19905;SDS011;10115;50.906;4.438;2023-02-22T16:46:55;42.90;;;17.13;;
19905;SDS011;10115;50.906;4.438;2023-02-22T16:49:22;27.97;;;15.37;;
19905;SDS011;10115;50.906;4.438;2023-02-22T16:51:54;29.63;;;15.27;;
19905;SDS011;10115;50.906;4.438;2023-02-22T16:54:24;23.03;;;13.20;;
19905;SDS011;10115;50.906;4.438;2023-02-22T16:56:58;21.00;;;13.10;;
19905;SDS011;10115;50.906;4.438;2023-02-22T16:59:26;31.37;;;15.90;;
19905;SDS011;10115;50.906;4.438;2023-02-22T17:01:56;34.73;;;20.53;;
19905;SDS011;10115;50.906;4.438;2023-02-22T17:04:23;36.37;;;15.43;;
19905;SDS011;10115;50.906;4.438;2023-02-22T17:06:49;29.70;;;17.77;;
19905;SDS011;10115;50.906;4.438;2023-02-22T17:09:15;30.27;;;18.00;;
19905;SDS011;10115;50.906;4.438;2023-02-22T17:11:44;29.07;;;15.57;;
19905;SDS011;10115;50.906;4.438;2023-02-22T17:14:18;35.60;;;18.57;;
19905;SDS011;10115;50.906;4.438;2023-02-22T17:16:48;27.13;;;17.30;;
19905;SDS011;10115;50.906;4.438;2023-02-22T17:19:15;28.23;;;14.97;;
19905;SDS011;10115;50.906;4.438;2023-02-22T17:21:42;42.53;;;20.20;;
19905;SDS011;10115;50.906;4.438;2023-02-22T17:24:12;24.43;;;16.27;;
19905;SDS011;10115;50.906;4.438;2023-02-22T17:26:40;36.27;;;17.43;;
19905;SDS011;10115;50.906;4.438;2023-02-22T17:29:06;33.40;;;18.77;;
19905;SDS011;10115;50.906;4.438;2023-02-22T17:31:32;33.90;;;19.10;;
19905;SDS011;10115;50.906;4.438;2023-02-22T17:33:59;24.47;;;14.67;;
19905;SDS011;10115;50.906;4.438;2023-02-22T17:36:27;39.63;;;18.60;;
19905;SDS011;10115;50.906;4.438;2023-02-22T17:38:55;43.53;;;19.20;;
19905;SDS011;10115;50.906;4.438;2023-02-22T17:41:21;39.53;;;18.47;;
19905;SDS011;10115;50.906;4.438;2023-02-22T17:43:47;37.90;;;18.57;;
19905;SDS011;10115;50.906;4.438;2023-02-22T17:46:13;39.97;;;20.33;;